createdAt,value
2023-02-05T00:00:35.284Z,4.10
2023-02-05T00:03:04.436Z,4.10
2023-02-05T00:05:33.445Z,3.17
2023-02-05T00:08:04.063Z,3.30
2023-02-05T00:10:32.969Z,3.92
2023-02-05T00:13:01.645Z,3.70
2023-02-05T00:15:31.075Z,3.63
2023-02-05T00:18:00.213Z,4.00
2023-02-05T00:20:29.744Z,4.00
2023-02-05T00:22:58.309Z,3.97
2023-02-05T00:25:29.991Z,3.45
2023-02-05T00:27:58.569Z,3.92
2023-02-05T00:30:28.519Z,3.67
2023-02-05T00:32:57.170Z,3.80
2023-02-05T00:35:25.734Z,3.67
2023-02-05T00:37:54.356Z,3.80
2023-02-05T00:40:22.928Z,3.60
2023-02-05T00:42:52.904Z,3.65
2023-02-05T00:45:21.872Z,3.40
2023-02-05T00:47:50.662Z,3.85
2023-02-05T00:50:19.362Z,3.60
2023-02-05T00:52:48.341Z,3.65
2023-02-05T00:55:17.030Z,3.45
2023-02-05T00:57:45.578Z,3.85
2023-02-05T01:00:16.737Z,3.72
2023-02-05T01:02:45.434Z,3.67
2023-02-05T01:05:20.326Z,3.50
2023-02-05T01:07:48.893Z,3.55
2023-02-05T01:10:17.812Z,3.30
2023-02-05T01:12:46.398Z,3.45
2023-02-05T01:15:16.336Z,3.42
2023-02-05T01:17:44.995Z,3.40
2023-02-05T01:20:14.624Z,3.50
2023-02-05T01:22:43.342Z,3.80
2023-02-05T01:25:12.225Z,3.58
2023-02-05T01:27:41.229Z,3.80
2023-02-05T01:30:12.620Z,3.63
2023-02-05T01:32:42.910Z,3.20
2023-02-05T01:35:11.526Z,3.53
2023-02-05T01:37:40.140Z,3.33
2023-02-05T01:40:09.977Z,3.20
2023-02-05T01:42:38.482Z,3.00
2023-02-05T01:45:50.956Z,3.60
2023-02-05T01:48:24.071Z,3.17
2023-02-05T01:50:55.072Z,3.33
2023-02-05T01:53:26.266Z,3.40
2023-02-05T01:55:57.552Z,3.38
2023-02-05T01:58:27.723Z,3.08
2023-02-05T02:00:56.611Z,2.85
2023-02-05T02:03:28.008Z,3.55
2023-02-05T02:05:57.744Z,3.08
2023-02-05T02:08:26.453Z,3.30
2023-02-05T02:10:55.583Z,3.08
2023-02-05T02:13:24.509Z,3.30
2023-02-05T02:15:53.482Z,3.22
2023-02-05T02:18:28.142Z,3.40
2023-02-05T02:21:54.811Z,3.05
2023-02-05T02:24:57.134Z,3.13
2023-02-05T02:27:42.159Z,3.42
2023-02-05T02:30:15.922Z,3.00
2023-02-05T02:32:48.179Z,3.45
2023-02-05T02:35:21.018Z,3.03
2023-02-05T02:37:59.540Z,3.28
2023-02-05T02:40:32.831Z,3.47
2023-02-05T02:43:06.446Z,3.10
2023-02-05T02:45:36.909Z,3.03
2023-02-05T02:48:06.152Z,3.15
2023-02-05T02:50:37.584Z,2.90
2023-02-05T02:53:10.440Z,3.28
2023-02-05T02:55:43.690Z,2.90
2023-02-05T02:58:17.913Z,3.20
2023-02-05T03:00:47.003Z,3.15
2023-02-05T03:03:17.732Z,3.10
2023-02-05T03:05:46.776Z,3.10
2023-02-05T03:08:20.942Z,2.80
2023-02-05T03:10:54.355Z,2.95
2023-02-05T03:13:24.571Z,2.97
2023-02-05T03:15:53.411Z,2.80
2023-02-05T03:18:22.126Z,3.10
2023-02-05T03:20:55.382Z,3.15
2023-02-05T03:23:24.236Z,2.90
2023-02-05T03:25:53.563Z,2.97
2023-02-05T03:28:26.758Z,2.80
2023-02-05T03:30:59.552Z,3.08
2023-02-05T03:33:41.123Z,3.05
2023-02-05T03:36:19.122Z,2.63
2023-02-05T03:38:59.286Z,2.78
2023-02-05T03:41:54.120Z,3.00
2023-02-05T03:44:36.185Z,2.78
2023-02-05T03:47:07.200Z,3.10
2023-02-05T03:49:43.794Z,2.90
2023-02-05T03:52:14.840Z,2.92
2023-02-05T03:54:47.832Z,2.85
2023-02-05T03:57:19.954Z,2.85
2023-02-05T03:59:50.828Z,3.20
2023-02-05T04:02:20.234Z,3.17
2023-02-05T04:04:48.941Z,2.88
2023-02-05T04:07:17.459Z,3.10
2023-02-05T04:09:46.507Z,2.70
2023-02-05T04:12:15.083Z,3.13
2023-02-05T04:14:43.770Z,3.20
2023-02-05T04:17:14.299Z,2.92
2023-02-05T04:19:42.840Z,3.15
2023-02-05T04:22:11.619Z,2.70
2023-02-05T04:24:40.552Z,2.97
2023-02-05T04:27:09.410Z,2.75
2023-02-05T04:29:38.246Z,3.05
2023-02-05T04:32:07.284Z,3.05
2023-02-05T04:34:37.526Z,2.88
2023-02-05T04:37:06.132Z,3.00
2023-02-05T04:39:35.044Z,2.78
2023-02-05T04:42:03.852Z,3.17
2023-02-05T04:44:32.568Z,3.00
2023-02-05T04:47:01.705Z,3.05
2023-02-05T04:49:30.450Z,2.67
2023-02-05T04:52:00.338Z,3.00
2023-02-05T04:54:29.981Z,2.92
2023-02-05T04:56:58.662Z,2.90
2023-02-05T04:59:30.150Z,2.70
2023-02-05T05:01:59.151Z,2.80
2023-02-05T05:04:28.259Z,3.17
2023-02-05T05:06:57.038Z,2.90
2023-02-05T05:09:27.320Z,2.45
2023-02-05T05:11:56.456Z,2.92
2023-02-05T05:14:25.320Z,3.25
2023-02-05T05:16:54.062Z,2.70
2023-02-05T05:19:22.774Z,3.08
2023-02-05T05:21:52.006Z,3.08
2023-02-05T05:24:20.696Z,3.47
2023-02-05T05:26:50.830Z,2.60
2023-02-05T05:29:20.689Z,2.75
2023-02-05T05:31:49.373Z,3.10
2023-02-05T05:34:18.048Z,3.00
2023-02-05T05:36:47.738Z,3.20
2023-02-05T05:39:33.889Z,3.17
2023-02-05T05:42:21.642Z,3.22
2023-02-05T05:44:52.232Z,3.05
2023-02-05T05:47:21.047Z,2.72
2023-02-05T05:49:49.755Z,3.30
2023-02-05T05:52:18.622Z,2.63
2023-02-05T05:54:47.348Z,2.80
2023-02-05T05:57:17.667Z,3.00
2023-02-05T05:59:46.285Z,2.90
2023-02-05T06:02:15.641Z,3.45
2023-02-05T06:04:44.341Z,3.15
2023-02-05T06:07:13.066Z,3.08
2023-02-05T06:09:42.318Z,3.15
2023-02-05T06:12:11.803Z,3.25
2023-02-05T06:14:42.004Z,3.13
2023-02-05T06:17:10.808Z,2.92
2023-02-05T06:19:39.372Z,3.13
2023-02-05T06:22:08.216Z,3.30
2023-02-05T06:24:36.903Z,3.25
2023-02-05T06:27:05.579Z,3.20
2023-02-05T06:29:34.506Z,2.92
2023-02-05T06:32:06.530Z,3.10
2023-02-05T06:34:35.240Z,3.22
2023-02-05T06:37:04.463Z,3.00
2023-02-05T06:39:33.500Z,3.10
2023-02-05T06:42:02.174Z,3.30
2023-02-05T06:44:30.982Z,3.28
2023-02-05T06:47:00.129Z,3.28
2023-02-05T06:49:30.148Z,3.25
2023-02-05T06:51:59.180Z,3.55
2023-02-05T06:54:27.973Z,3.28
2023-02-05T06:56:56.611Z,3.58
2023-02-05T06:59:25.761Z,3.58
2023-02-05T07:01:54.361Z,3.33
2023-02-05T07:04:23.438Z,3.35
2023-02-05T07:06:55.693Z,3.88
2023-02-05T07:09:24.447Z,3.58
2023-02-05T07:11:54.050Z,4.22
2023-02-05T07:14:22.801Z,3.72
2023-02-05T07:16:51.880Z,3.88
2023-02-05T07:19:20.637Z,3.47
2023-02-05T07:21:49.613Z,3.65
2023-02-05T07:24:19.631Z,3.53
2023-02-05T07:26:48.810Z,4.10
2023-02-05T07:29:17.573Z,3.63
2023-02-05T07:31:46.336Z,3.53
2023-02-05T07:34:15.700Z,4.03
2023-02-05T07:36:44.309Z,3.60
2023-02-05T07:39:13.043Z,3.78
2023-02-05T07:41:43.355Z,4.00
2023-02-05T07:44:12.076Z,3.75
2023-02-05T07:46:40.913Z,3.40
2023-02-05T07:49:11.571Z,4.00
2023-02-05T07:51:40.264Z,3.70
2023-02-05T07:54:09.222Z,3.75
2023-02-05T07:56:38.031Z,3.63
2023-02-05T07:59:08.318Z,4.38
2023-02-05T08:01:37.196Z,4.18
2023-02-05T08:04:06.594Z,3.95
2023-02-05T08:06:35.288Z,3.60
2023-02-05T08:09:04.088Z,4.25
2023-02-05T08:11:33.120Z,4.22
2023-02-05T08:14:02.256Z,4.45
2023-02-05T08:16:32.583Z,3.65
2023-02-05T08:19:01.638Z,3.92
2023-02-05T08:21:30.383Z,4.20
2023-02-05T08:24:01.252Z,4.05
2023-02-05T08:26:30.040Z,4.47
2023-02-05T08:29:00.097Z,4.72
2023-02-05T08:31:28.807Z,4.20
2023-02-05T08:34:00.386Z,4.30
2023-02-05T08:36:29.228Z,3.88
2023-02-05T08:38:57.929Z,3.78
2023-02-05T08:41:26.750Z,4.90
2023-02-05T08:43:55.398Z,4.05
2023-02-05T08:46:31.617Z,4.32
2023-02-05T08:49:07.519Z,4.60
2023-02-05T08:51:37.312Z,4.32
2023-02-05T08:54:09.347Z,4.20
2023-02-05T08:56:38.350Z,4.20
2023-02-05T08:59:07.069Z,5.07
2023-02-05T09:01:37.338Z,10.23
2023-02-05T09:04:07.761Z,6.47
2023-02-05T09:06:37.004Z,9.13
2023-02-05T09:09:05.843Z,11.40
2023-02-05T09:11:34.794Z,26.30
2023-02-05T09:14:04.136Z,29.73
2023-02-05T09:16:32.920Z,17.67
2023-02-05T09:19:02.120Z,19.05
2023-02-05T09:21:32.342Z,23.00
2023-02-05T09:24:01.027Z,28.25
2023-02-05T09:26:30.153Z,23.40
2023-02-05T09:28:59.430Z,28.95
2023-02-05T09:31:28.590Z,21.77
2023-02-05T09:33:57.520Z,24.38
2023-02-05T09:36:26.157Z,27.10
2023-02-05T09:39:11.866Z,25.67
2023-02-05T09:41:47.626Z,28.50
2023-02-05T09:44:19.515Z,26.50
2023-02-05T09:46:53.275Z,24.95
2023-02-05T09:49:27.749Z,23.67
2023-02-05T09:52:01.089Z,22.40
2023-02-05T09:54:33.465Z,24.45
2023-02-05T09:57:06.075Z,22.25
2023-02-05T09:59:35.280Z,22.00
2023-02-05T10:02:14.560Z,21.10
2023-02-05T10:04:43.584Z,20.45
2023-02-05T10:07:29.366Z,20.33
2023-02-05T10:10:27.733Z,19.98
2023-02-05T10:13:29.268Z,18.98
2023-02-05T10:16:41.194Z,19.80
2023-02-05T10:19:47.649Z,18.80
2023-02-05T10:22:20.680Z,18.75
2023-02-05T10:25:34.945Z,17.67
2023-02-05T10:28:10.604Z,18.38
2023-02-05T10:30:44.310Z,17.70
2023-02-05T10:33:17.989Z,17.25
2023-02-05T10:35:51.198Z,17.52
2023-02-05T10:38:23.991Z,17.48
2023-02-05T10:40:59.395Z,17.58
2023-02-05T10:43:30.980Z,17.70
2023-02-05T10:45:59.814Z,16.58
2023-02-05T10:48:42.770Z,16.48
2023-02-05T10:51:14.094Z,15.45
2023-02-05T10:53:42.785Z,15.98
2023-02-05T10:56:17.946Z,15.05
2023-02-05T10:58:49.848Z,15.32
2023-02-05T11:01:20.367Z,15.23
2023-02-05T11:03:55.300Z,14.27
2023-02-05T11:06:25.386Z,15.77
2023-02-05T11:08:54.100Z,14.73
2023-02-05T11:11:28.035Z,15.23
2023-02-05T11:13:58.879Z,15.82
2023-02-05T11:16:37.864Z,14.25
2023-02-05T11:19:06.735Z,13.68
2023-02-05T11:21:52.294Z,14.25
2023-02-05T11:24:28.263Z,14.10
2023-02-05T11:29:50.980Z,14.23
2023-02-05T11:32:21.183Z,14.07
2023-02-05T11:34:49.920Z,14.45
2023-02-05T11:37:19.757Z,14.13
2023-02-05T11:39:48.896Z,13.93
2023-02-05T11:42:21.314Z,13.63
2023-02-05T11:44:53.670Z,13.20
2023-02-05T11:47:27.939Z,13.55
2023-02-05T11:49:56.603Z,13.77
2023-02-05T11:52:28.712Z,12.85
2023-02-05T11:54:57.528Z,14.18
2023-02-05T11:57:35.557Z,13.23
2023-02-05T12:00:22.256Z,12.27
2023-02-05T12:02:54.128Z,12.75
2023-02-05T12:05:25.341Z,12.48
2023-02-05T12:07:56.612Z,11.68
2023-02-05T12:10:30.350Z,12.35
2023-02-05T12:13:07.329Z,13.02
2023-02-05T12:15:43.027Z,11.80
2023-02-05T12:18:20.548Z,12.18
2023-02-05T12:20:52.422Z,12.02
2023-02-05T12:23:35.426Z,11.93
2023-02-05T12:26:21.984Z,11.55
2023-02-05T12:28:58.083Z,11.13
2023-02-05T12:31:37.800Z,12.23
2023-02-05T12:34:17.663Z,10.73
2023-02-05T12:37:10.960Z,11.30
2023-02-05T12:39:44.562Z,11.25
2023-02-05T12:42:26.143Z,10.85
2023-02-05T12:45:36.774Z,11.63
2023-02-05T12:48:32.478Z,10.85
2023-02-05T12:51:11.245Z,10.57
2023-02-05T12:53:58.023Z,11.48
2023-02-05T12:56:41.356Z,10.52
2023-02-05T12:59:15.541Z,10.30
2023-02-05T13:01:48.166Z,10.98
2023-02-05T13:04:24.231Z,10.88
2023-02-05T13:06:56.603Z,11.00
2023-02-05T13:09:30.495Z,11.15
2023-02-05T13:12:05.104Z,10.60
2023-02-05T13:14:39.381Z,11.48
2023-02-05T13:17:13.721Z,10.52
2023-02-05T13:19:46.303Z,10.00
2023-02-05T13:22:36.181Z,9.70
2023-02-05T13:25:40.959Z,10.20
2023-02-05T13:28:42.472Z,10.07
2023-02-05T13:31:16.717Z,9.50
2023-02-05T13:33:45.590Z,9.95
2023-02-05T13:36:56.423Z,9.25
2023-02-05T13:39:59.943Z,9.55
2023-02-05T13:42:44.390Z,9.77
2023-02-05T13:45:28.869Z,9.25
2023-02-05T13:48:12.684Z,9.32
2023-02-05T13:51:23.375Z,9.05
2023-02-05T13:54:20.706Z,8.90
2023-02-05T13:56:50.836Z,8.88
2023-02-05T13:59:23.453Z,9.00
2023-02-05T14:02:07.838Z,8.98
2023-02-05T14:04:39.674Z,9.23
2023-02-05T14:07:10.468Z,8.57
2023-02-05T14:09:43.175Z,8.45
2023-02-05T14:15:25.999Z,9.93
2023-02-05T14:17:56.152Z,9.18
2023-02-05T14:20:34.473Z,8.60
2023-02-05T14:23:03.543Z,8.43
2023-02-05T14:26:11.981Z,8.43
2023-02-05T14:28:51.739Z,8.80
2023-02-05T14:31:49.691Z,8.30
2023-02-05T14:34:49.289Z,8.30
2023-02-05T14:37:37.618Z,8.45
2023-02-05T14:40:24.886Z,8.65
2023-02-05T14:43:08.455Z,8.23
2023-02-05T14:45:44.749Z,8.15
2023-02-05T14:48:21.947Z,7.72
2023-02-05T14:51:05.699Z,8.35
2023-02-05T14:53:34.635Z,7.85
2023-02-05T14:56:03.357Z,8.18
2023-02-05T14:58:36.008Z,7.95
2023-02-05T15:01:44.077Z,7.72
2023-02-05T15:04:40.125Z,8.35
2023-02-05T15:07:12.509Z,7.20
2023-02-05T15:09:45.321Z,7.55
2023-02-05T15:12:53.932Z,7.53
2023-02-05T15:15:33.973Z,7.68
2023-02-05T15:18:21.864Z,7.50
2023-02-05T15:20:50.797Z,7.55
2023-02-05T15:23:36.191Z,7.93
2023-02-05T15:26:06.816Z,7.80
2023-02-05T15:28:38.244Z,7.20
2023-02-05T15:31:28.625Z,7.57
2023-02-05T15:34:03.569Z,7.28
2023-02-05T15:36:36.412Z,7.85
2023-02-05T15:39:20.974Z,7.50
2023-02-05T15:41:49.879Z,6.95
2023-02-05T15:44:24.914Z,7.00
2023-02-05T15:46:54.912Z,8.13
2023-02-05T15:49:41.853Z,7.85
2023-02-05T15:52:18.173Z,7.30
2023-02-05T15:54:46.911Z,7.60
2023-02-05T15:57:20.311Z,7.22
2023-02-05T15:59:49.089Z,7.28
2023-02-05T16:02:20.645Z,7.20
2023-02-05T16:04:55.819Z,7.45
2023-02-05T16:07:26.561Z,7.75
2023-02-05T16:09:57.324Z,8.10
2023-02-05T16:12:26.185Z,7.40
2023-02-05T16:15:02.370Z,6.88
2023-02-05T16:17:37.419Z,7.40
2023-02-05T16:20:26.847Z,7.57
2023-02-05T16:22:57.345Z,6.93
2023-02-05T16:25:36.047Z,7.20
2023-02-05T16:28:07.255Z,6.97
2023-02-05T16:30:40.641Z,7.03
2023-02-05T16:33:19.618Z,7.03
2023-02-05T16:35:49.179Z,7.20
2023-02-05T16:38:19.344Z,7.45
2023-02-05T16:40:49.981Z,7.15
2023-02-05T16:43:30.341Z,6.75
2023-02-05T16:46:26.708Z,6.85
2023-02-05T16:48:58.998Z,7.20
2023-02-05T16:51:32.883Z,7.22
2023-02-05T16:54:01.985Z,7.47
2023-02-05T16:56:32.092Z,7.25
2023-02-05T16:59:01.851Z,7.55
2023-02-05T17:01:33.501Z,7.10
2023-02-05T17:04:04.525Z,6.68
2023-02-05T17:06:35.042Z,6.90
2023-02-05T17:09:05.086Z,6.95
2023-02-05T17:11:37.465Z,6.65
2023-02-05T17:14:22.433Z,6.65
2023-02-05T17:16:56.621Z,6.60
2023-02-05T17:19:28.189Z,6.70
2023-02-05T17:22:20.424Z,6.28
2023-02-05T17:24:50.133Z,6.55
2023-02-05T17:27:19.338Z,6.45
2023-02-05T17:29:48.193Z,6.95
2023-02-05T17:32:18.212Z,6.53
2023-02-05T17:34:48.522Z,6.32
2023-02-05T17:37:17.467Z,7.13
2023-02-05T17:39:46.102Z,6.63
2023-02-05T17:42:21.002Z,6.72
2023-02-05T17:44:49.771Z,6.72
2023-02-05T17:47:18.888Z,6.53
2023-02-05T17:49:48.668Z,6.65
2023-02-05T17:52:17.255Z,7.53
2023-02-05T17:54:46.584Z,6.63
2023-02-05T17:57:18.382Z,6.45
2023-02-05T17:59:47.285Z,6.40
2023-02-05T18:02:15.982Z,6.30
2023-02-05T18:04:44.957Z,6.35
2023-02-05T18:07:21.061Z,6.85
2023-02-05T18:09:52.517Z,6.50
2023-02-05T18:12:21.783Z,6.53
2023-02-05T18:14:50.738Z,6.68
2023-02-05T18:17:19.488Z,6.68
2023-02-05T18:19:48.483Z,6.40
2023-02-05T18:22:18.527Z,5.80
2023-02-05T18:24:47.362Z,6.38
2023-02-05T18:27:16.687Z,6.40
2023-02-05T18:29:45.484Z,6.22
2023-02-05T18:32:14.193Z,5.97
2023-02-05T18:34:43.353Z,6.57
2023-02-05T18:37:14.279Z,6.70
2023-02-05T18:39:44.197Z,5.90
2023-02-05T18:42:12.926Z,7.15
2023-02-05T18:44:41.573Z,6.00
2023-02-05T18:47:11.555Z,6.25
2023-02-05T18:49:40.270Z,6.35
2023-02-05T18:52:10.325Z,6.63
2023-02-05T18:54:39.199Z,6.88
2023-02-05T18:57:09.258Z,6.78
2023-02-05T18:59:38.216Z,6.57
2023-02-05T19:02:07.139Z,6.35
2023-02-05T19:04:36.208Z,6.60
2023-02-05T19:07:05.666Z,5.97
2023-02-05T19:09:34.469Z,6.65
2023-02-05T19:12:03.145Z,6.43
2023-02-05T19:14:33.979Z,6.63
2023-02-05T19:17:02.782Z,6.38
2023-02-05T19:19:31.759Z,6.68
2023-02-05T19:22:02.309Z,6.78
2023-02-05T19:24:30.911Z,6.70
2023-02-05T19:27:00.110Z,6.72
2023-02-05T19:29:28.962Z,6.10
2023-02-05T19:31:59.304Z,6.80
2023-02-05T19:34:29.231Z,7.50
2023-02-05T19:36:57.954Z,6.40
2023-02-05T19:39:27.125Z,6.65
2023-02-05T19:41:56.496Z,6.93
2023-02-05T19:44:27.393Z,6.32
2023-02-05T19:46:56.322Z,6.32
2023-02-05T19:49:26.436Z,6.72
2023-02-05T19:51:56.587Z,6.45
2023-02-05T19:54:25.338Z,6.50
2023-02-05T19:56:54.081Z,5.82
2023-02-05T19:59:22.633Z,6.68
2023-02-05T20:01:51.650Z,6.45
2023-02-05T20:04:22.415Z,6.47
2023-02-05T20:06:55.198Z,6.65
2023-02-05T20:09:23.974Z,6.68
2023-02-05T20:11:54.453Z,6.20
2023-02-05T20:14:23.554Z,6.47
2023-02-05T20:16:52.732Z,7.00
2023-02-05T20:19:21.644Z,6.28
2023-02-05T20:21:52.320Z,5.85
2023-02-05T20:24:20.924Z,6.97
2023-02-05T20:26:49.849Z,6.40
2023-02-05T20:29:35.664Z,5.97
2023-02-05T20:32:05.887Z,6.13
2023-02-05T20:34:36.269Z,6.57
2023-02-05T20:37:09.636Z,5.60
2023-02-05T20:39:41.982Z,6.30
2023-02-05T20:42:13.600Z,6.05
2023-02-05T20:44:42.495Z,6.15
2023-02-05T20:47:14.381Z,6.45
2023-02-05T20:49:43.408Z,6.50
2023-02-05T20:52:13.755Z,6.38
2023-02-05T20:54:42.730Z,5.90
2023-02-05T20:57:11.352Z,6.15
2023-02-05T20:59:40.332Z,6.82
2023-02-05T21:02:10.488Z,6.72
2023-02-05T21:04:39.245Z,6.40
2023-02-05T21:07:07.889Z,6.78
2023-02-05T21:09:41.136Z,6.70
2023-02-05T21:12:09.959Z,6.15
2023-02-05T21:14:39.074Z,6.95
2023-02-05T21:17:09.592Z,6.45
2023-02-05T21:19:39.317Z,6.38
2023-02-05T21:22:08.046Z,6.63
2023-02-05T21:24:36.892Z,6.97
2023-02-05T21:27:07.669Z,6.38
2023-02-05T21:29:36.520Z,6.13
2023-02-05T21:32:05.684Z,7.07
2023-02-05T21:34:34.509Z,6.00
2023-02-05T21:37:03.222Z,6.85
2023-02-05T21:39:32.043Z,5.85
2023-02-05T21:42:01.065Z,6.55
2023-02-05T21:44:31.237Z,6.68
2023-02-05T21:46:59.802Z,6.40
2023-02-05T21:49:28.884Z,6.50
2023-02-05T21:51:57.565Z,6.07
2023-02-05T21:54:26.234Z,6.40
2023-02-05T21:56:55.104Z,6.53
2023-02-05T21:59:23.716Z,7.03
2023-02-05T22:01:53.716Z,6.78
2023-02-05T22:04:22.560Z,6.43
2023-02-05T22:06:51.649Z,6.50
2023-02-05T22:09:20.928Z,6.18
2023-02-05T22:11:50.650Z,6.47
2023-02-05T22:14:19.338Z,5.85
2023-02-05T22:16:47.970Z,6.53
2023-02-05T22:19:18.087Z,6.75
2023-02-05T22:21:46.739Z,6.70
2023-02-05T22:24:16.891Z,7.05
2023-02-05T22:26:46.223Z,6.03
2023-02-05T22:29:15.867Z,6.13
2023-02-05T22:31:45.477Z,6.93
2023-02-05T22:34:14.458Z,6.30
2023-02-05T22:36:44.580Z,6.10
2023-02-05T22:39:13.146Z,6.07
2023-02-05T22:41:43.055Z,6.45
2023-02-05T22:44:12.382Z,5.95
2023-02-05T22:46:42.597Z,6.43
2023-02-05T22:49:12.561Z,6.13
2023-02-05T22:51:43.016Z,6.95
2023-02-05T22:54:13.317Z,6.40
2023-02-05T22:56:41.934Z,6.10
2023-02-05T22:59:10.782Z,6.10
2023-02-05T23:01:39.560Z,6.53
2023-02-05T23:04:09.995Z,6.55
2023-02-05T23:06:39.895Z,6.43
2023-02-05T23:09:11.408Z,5.72
2023-02-05T23:11:40.054Z,6.57
2023-02-05T23:14:09.526Z,6.85
2023-02-05T23:16:40.445Z,6.88
2023-02-05T23:19:10.905Z,6.55
2023-02-05T23:21:39.834Z,6.47
2023-02-05T23:24:10.066Z,6.80
2023-02-05T23:26:42.176Z,6.70
2023-02-05T23:29:11.030Z,6.45
2023-02-05T23:31:42.708Z,6.57
2023-02-05T23:34:11.398Z,6.32
2023-02-05T23:36:40.035Z,6.75
2023-02-05T23:39:10.111Z,6.40
2023-02-05T23:41:40.223Z,6.13
2023-02-05T23:44:12.240Z,6.60
2023-02-05T23:46:41.025Z,6.40
2023-02-05T23:49:09.927Z,6.18
2023-02-05T23:51:38.930Z,6.63
2023-02-05T23:54:09.333Z,6.28
2023-02-05T23:56:38.492Z,6.38
2023-02-05T23:59:07.139Z,6.22
